CHP2 weather

Heurisko Pond Water Aerodrome
Belwood, Ontario, Canada

Public forecast

Using degrees Celsius for public forecast. Weather courtesy of forecast.io.

METAR (pilot weather report)

Closest report is Waterloo Airport, 18.7 nm (34.6 km) S. Retrieved 2019/05/20 18:00 UTC (52 minutes ago):

CYKF 201800Z AUTO 27019G26KT 9SM BKN026 BKN033 OVC046 11/06 A2984 RMK SLP108

TAF (pilot weather forecast)

Closest forecast is Waterloo Airport, 18.7 nm (34.6 km) S. Retrieved 2019/05/20 14:39 UTC (4 hours ago):

TAF CYKF 201338Z 2014/2102 27015G28KT P6SM BKN030 BKN060 TEMPO 2014/2015 BKN020 BKN060 FM201500 26020G30KT P6SM BKN030 TEMPO 2015/2024 BKN020 BECMG 2019/2021 29017G27KT FM210000 30012G22KT P6SM BKN030 TEMPO 2100/2102 BKN020 RMK FCST BASED ON AUTO OBS. NXT FCST BY 202000Z